createdAt,value
2018-06-17T00:00:48.168Z,19.20
2018-06-17T00:03:16.628Z,19.20
2018-06-17T00:05:45.089Z,19.10
2018-06-17T00:08:13.556Z,19.10
2018-06-17T00:10:42.025Z,19.10
2018-06-17T00:13:10.484Z,19.00
2018-06-17T00:18:07.060Z,19.00
2018-06-17T00:20:35.487Z,19.00
2018-06-17T00:23:03.943Z,19.00
2018-06-17T00:25:32.376Z,18.90
2018-06-17T00:30:28.963Z,18.70
2018-06-17T00:32:57.391Z,18.70
2018-06-17T00:35:25.839Z,18.50
2018-06-17T00:37:54.308Z,18.30
2018-06-17T00:40:22.803Z,18.20
2018-06-17T00:42:51.227Z,18.10
2018-06-17T00:47:47.809Z,18.00
2018-06-17T00:50:16.269Z,18.00
2018-06-17T00:52:44.697Z,18.00
2018-06-17T00:55:13.132Z,18.00
2018-06-17T01:00:17.159Z,17.90
2018-06-17T01:07:42.724Z,17.80
2018-06-17T01:10:11.199Z,17.80
2018-06-17T01:12:39.959Z,17.80
2018-06-17T01:15:08.734Z,17.80
2018-06-17T01:17:37.550Z,17.80
2018-06-17T01:22:34.476Z,17.90
2018-06-17T01:25:02.964Z,17.90
2018-06-17T01:27:31.419Z,17.90
2018-06-17T01:29:59.876Z,17.90
2018-06-17T01:32:28.303Z,17.80
2018-06-17T01:34:56.731Z,17.90
2018-06-17T01:37:25.179Z,17.90
2018-06-17T01:39:53.600Z,17.90
2018-06-17T01:42:22.053Z,17.90
2018-06-17T01:47:18.648Z,17.90
2018-06-17T01:49:47.080Z,17.90
2018-06-17T01:54:43.686Z,17.90
2018-06-17T01:57:12.116Z,17.90
2018-06-17T02:02:08.732Z,17.90
2018-06-17T02:04:42.604Z,17.90
2018-06-17T02:07:16.352Z,17.90
2018-06-17T02:09:50.135Z,17.80
2018-06-17T02:12:19.579Z,17.80
2018-06-17T02:14:53.347Z,17.80
2018-06-17T02:17:22.784Z,17.80
2018-06-17T02:19:51.915Z,17.70
2018-06-17T02:22:20.347Z,17.70
2018-06-17T02:24:48.771Z,17.60
2018-06-17T02:27:17.461Z,17.60
2018-06-17T02:29:45.875Z,17.60
2018-06-17T02:32:14.421Z,17.50
2018-06-17T02:34:42.843Z,17.40
2018-06-17T02:37:11.320Z,17.30
2018-06-17T02:39:39.746Z,17.30
2018-06-17T02:42:09.038Z,17.20
2018-06-17T02:44:37.743Z,17.20
2018-06-17T02:52:14.619Z,17.20
2018-06-17T02:54:47.951Z,17.20
2018-06-17T02:59:47.151Z,17.20
2018-06-17T03:02:15.828Z,17.20
2018-06-17T03:04:44.288Z,17.20
2018-06-17T03:07:12.707Z,17.20
2018-06-17T03:12:09.295Z,17.30
2018-06-17T03:14:37.711Z,17.30
2018-06-17T03:17:06.166Z,17.30
2018-06-17T03:19:34.619Z,17.30
2018-06-17T03:22:03.115Z,17.30
2018-06-17T03:24:36.839Z,17.30
2018-06-17T03:27:10.575Z,17.30
2018-06-17T03:29:44.398Z,17.30
2018-06-17T03:34:50.603Z,17.30
2018-06-17T03:37:19.031Z,17.30
2018-06-17T03:39:47.438Z,17.40
2018-06-17T03:44:43.988Z,17.40
2018-06-17T03:47:12.452Z,17.40
2018-06-17T03:49:40.868Z,17.40
2018-06-17T03:52:09.270Z,17.40
2018-06-17T03:54:37.714Z,17.40
2018-06-17T03:57:06.151Z,17.40
2018-06-17T03:59:34.611Z,17.40
2018-06-17T04:02:03.031Z,17.40
2018-06-17T04:04:35.679Z,17.40
2018-06-17T04:07:04.091Z,17.40
2018-06-17T04:09:32.515Z,17.40
2018-06-17T04:12:00.951Z,17.40
2018-06-17T04:14:29.358Z,17.30
2018-06-17T04:21:58.544Z,17.30
2018-06-17T04:24:26.974Z,17.40
2018-06-17T04:29:23.518Z,17.50
2018-06-17T04:34:20.075Z,17.60
2018-06-17T04:36:48.495Z,17.80
2018-06-17T04:39:16.931Z,17.80
2018-06-17T04:44:13.453Z,17.80
2018-06-17T04:46:41.887Z,17.90
2018-06-17T04:49:10.299Z,17.90
2018-06-17T04:51:38.729Z,17.90
2018-06-17T04:56:35.298Z,17.90
2018-06-17T04:59:03.730Z,17.90
2018-06-17T05:01:32.135Z,18.00
2018-06-17T05:04:00.582Z,18.10
2018-06-17T05:06:28.995Z,18.20
2018-06-17T05:08:57.447Z,18.10
2018-06-17T05:11:25.859Z,18.20
2018-06-17T05:16:22.398Z,18.30
2018-06-17T05:18:50.832Z,18.40
2018-06-17T05:21:19.251Z,18.50
2018-06-17T05:23:47.691Z,18.60
2018-06-17T05:26:16.128Z,18.60
2018-06-17T05:31:12.702Z,18.60
2018-06-17T05:33:41.110Z,18.60
2018-06-17T05:36:09.552Z,18.60
2018-06-17T05:41:06.147Z,18.60
2018-06-17T05:43:34.566Z,18.70
2018-06-17T05:46:02.991Z,18.80
2018-06-17T05:48:31.398Z,18.90
2018-06-17T05:50:59.859Z,19.00
2018-06-17T05:53:28.291Z,19.10
2018-06-17T05:55:56.711Z,19.20
2018-06-17T05:58:25.148Z,19.20
2018-06-17T06:00:53.563Z,19.20
2018-06-17T06:03:22.024Z,19.10
2018-06-17T06:05:50.436Z,19.00
2018-06-17T06:08:18.859Z,19.00
2018-06-17T06:10:47.270Z,19.10
2018-06-17T06:15:43.829Z,19.00
2018-06-17T06:18:12.243Z,18.90
2018-06-17T06:20:40.675Z,18.90
2018-06-17T06:25:37.242Z,18.80
2018-06-17T06:28:05.663Z,18.70
2018-06-17T06:30:34.103Z,18.70
2018-06-17T06:33:02.516Z,18.60
2018-06-17T06:35:30.934Z,18.60
2018-06-17T06:37:59.367Z,18.60
2018-06-17T06:40:27.785Z,18.60
2018-06-17T06:42:56.343Z,18.60
2018-06-17T06:45:24.739Z,18.60
2018-06-17T06:47:53.162Z,18.60
2018-06-17T06:50:21.567Z,18.60
2018-06-17T06:52:49.969Z,18.60
2018-06-17T06:55:18.427Z,18.50
2018-06-17T06:57:46.831Z,18.50
2018-06-17T07:00:15.270Z,18.50
2018-06-17T07:02:54.970Z,18.60
2018-06-17T07:05:34.745Z,18.60
2018-06-17T07:08:14.520Z,18.60
2018-06-17T07:10:42.957Z,18.70
2018-06-17T07:13:11.401Z,18.60
2018-06-17T07:15:51.099Z,18.60
2018-06-17T07:20:53.078Z,18.60
2018-06-17T07:26:34.008Z,18.70
2018-06-17T07:29:13.831Z,18.80
2018-06-17T07:31:42.302Z,18.90
2018-06-17T07:34:11.474Z,18.90
2018-06-17T07:36:40.250Z,19.00
2018-06-17T07:40:24.227Z,19.10
2018-06-17T07:42:52.671Z,19.10
2018-06-17T07:45:21.098Z,19.30
2018-06-17T07:50:28.983Z,19.60
2018-06-17T07:53:08.635Z,19.70
2018-06-17T07:55:37.058Z,20.00
2018-06-17T07:58:05.540Z,20.30
2018-06-17T08:00:33.980Z,20.50
2018-06-17T08:03:02.381Z,20.70
2018-06-17T08:05:30.854Z,20.80
2018-06-17T08:07:59.265Z,20.80
2018-06-17T08:10:27.682Z,20.80
2018-06-17T08:12:56.119Z,20.80
2018-06-17T08:15:25.159Z,20.90
2018-06-17T08:17:53.599Z,20.90
2018-06-17T08:20:22.060Z,21.10
2018-06-17T08:22:50.527Z,21.20
2018-06-17T08:27:47.031Z,21.50
2018-06-17T08:30:15.471Z,21.70
2018-06-17T08:35:12.064Z,21.80
2018-06-17T08:37:40.458Z,21.80
2018-06-17T08:40:08.915Z,22.00
2018-06-17T08:42:37.322Z,22.00
2018-06-17T08:45:05.738Z,22.00
2018-06-17T08:47:34.158Z,22.10
2018-06-17T08:50:02.555Z,22.20
2018-06-17T08:52:30.975Z,22.40
2018-06-17T08:54:59.385Z,22.30
2018-06-17T08:57:27.816Z,22.30
2018-06-17T08:59:56.227Z,22.30
2018-06-17T09:02:24.663Z,22.30
2018-06-17T09:04:53.068Z,22.30
2018-06-17T09:07:21.462Z,22.10
2018-06-17T09:12:18.009Z,21.90
2018-06-17T09:14:46.411Z,22.00
2018-06-17T09:17:14.822Z,22.20
2018-06-17T09:19:43.250Z,22.50
2018-06-17T09:24:39.743Z,23.00
2018-06-17T09:27:08.170Z,23.10
2018-06-17T09:29:36.569Z,23.20
2018-06-17T09:32:05.100Z,23.30
2018-06-17T09:34:33.475Z,23.40
2018-06-17T09:37:01.911Z,23.50
2018-06-17T09:39:30.323Z,23.40
2018-06-17T09:41:58.724Z,23.10
2018-06-17T09:44:27.193Z,23.00
2018-06-17T09:46:55.567Z,23.10
2018-06-17T09:49:23.990Z,23.20
2018-06-17T09:51:52.399Z,23.30
2018-06-17T09:54:20.826Z,23.50
2018-06-17T09:56:49.222Z,23.70
2018-06-17T09:59:17.643Z,23.80
2018-06-17T10:01:46.057Z,23.70
2018-06-17T10:04:14.466Z,23.60
2018-06-17T10:06:42.948Z,23.70
2018-06-17T10:09:11.832Z,23.60
2018-06-17T10:11:40.259Z,23.60
2018-06-17T10:14:08.655Z,23.60
2018-06-17T10:16:37.081Z,23.60
2018-06-17T10:19:05.751Z,23.60
2018-06-17T10:21:34.183Z,23.60
2018-06-17T10:24:02.583Z,23.70
2018-06-17T10:26:31.010Z,23.60
2018-06-17T10:28:59.411Z,23.80
2018-06-17T10:31:27.830Z,23.80
2018-06-17T10:33:56.235Z,23.80
2018-06-17T10:36:24.667Z,23.90
2018-06-17T10:38:53.083Z,23.90
2018-06-17T10:41:21.484Z,24.00
2018-06-17T10:43:49.907Z,24.10
2018-06-17T10:46:18.319Z,24.20
2018-06-17T10:48:46.798Z,24.30
2018-06-17T10:51:15.203Z,24.40
2018-06-17T10:53:43.627Z,25.00
2018-06-17T10:56:12.110Z,25.30
2018-06-17T11:01:08.652Z,25.00
2018-06-17T11:03:37.026Z,24.50
2018-06-17T11:06:05.531Z,24.10
2018-06-17T11:08:33.942Z,24.30
2018-06-17T11:11:02.371Z,24.40
2018-06-17T11:15:58.889Z,25.20
2018-06-17T11:18:27.325Z,25.60
2018-06-17T11:20:55.779Z,25.60
2018-06-17T11:23:24.211Z,25.10
2018-06-17T11:25:52.615Z,24.80
2018-06-17T11:28:21.046Z,24.70
2018-06-17T11:30:49.447Z,24.50
2018-06-17T11:33:17.878Z,24.50
2018-06-17T11:38:14.371Z,24.10
2018-06-17T11:40:42.801Z,24.10
2018-06-17T11:43:11.218Z,24.20
2018-06-17T11:45:39.648Z,24.00
2018-06-17T11:48:08.060Z,24.00
2018-06-17T11:50:36.490Z,24.30
2018-06-17T11:53:04.911Z,24.60
2018-06-17T11:55:33.319Z,24.80
2018-06-17T11:58:01.764Z,25.20
2018-06-17T12:02:58.287Z,25.60
2018-06-17T12:05:26.743Z,25.70
2018-06-17T12:07:55.140Z,25.70
2018-06-17T12:10:23.563Z,25.50
2018-06-17T12:12:51.995Z,25.50
2018-06-17T12:15:20.407Z,26.00
2018-06-17T12:20:16.977Z,26.00
2018-06-17T12:22:45.387Z,26.20
2018-06-17T12:25:13.815Z,27.20
2018-06-17T12:27:42.211Z,27.80
2018-06-17T12:30:10.651Z,28.70
2018-06-17T12:32:39.055Z,28.90
2018-06-17T12:35:07.491Z,28.00
2018-06-17T12:37:35.909Z,27.20
2018-06-17T12:40:04.319Z,26.70
2018-06-17T12:42:32.742Z,26.20
2018-06-17T12:45:01.141Z,26.10
2018-06-17T12:47:29.575Z,25.80
2018-06-17T12:49:57.982Z,25.70
2018-06-17T12:52:26.407Z,25.60
2018-06-17T12:54:54.811Z,25.70
2018-06-17T12:57:23.670Z,26.00
2018-06-17T13:02:20.188Z,30.40
2018-06-17T13:04:48.612Z,33.20
2018-06-17T13:09:45.219Z,35.00
2018-06-17T13:12:13.619Z,36.10
2018-06-17T13:14:42.071Z,35.50
2018-06-17T13:17:10.467Z,35.10
2018-06-17T13:19:38.899Z,33.40
2018-06-17T13:22:07.454Z,32.00
2018-06-17T13:24:35.879Z,31.90
2018-06-17T13:27:04.391Z,32.60
2018-06-17T13:29:32.805Z,33.20
2018-06-17T13:32:01.263Z,33.40
2018-06-17T13:34:29.666Z,32.20
2018-06-17T13:39:26.207Z,30.90
2018-06-17T13:41:54.635Z,29.30
2018-06-17T13:44:23.048Z,28.00
2018-06-17T13:46:51.478Z,27.20
2018-06-17T13:49:19.890Z,26.70
2018-06-17T13:51:48.327Z,26.40
2018-06-17T13:56:44.840Z,26.20
2018-06-17T13:59:13.271Z,26.10
2018-06-17T14:01:41.759Z,25.80
2018-06-17T14:04:10.195Z,25.60
2018-06-17T14:06:38.601Z,25.40
2018-06-17T14:11:36.075Z,25.40
2018-06-17T14:14:04.730Z,25.30
2018-06-17T14:16:33.281Z,25.20
2018-06-17T14:19:01.688Z,25.00
2018-06-17T14:21:30.162Z,25.10
2018-06-17T14:23:58.579Z,25.10
2018-06-17T14:28:55.098Z,25.30
2018-06-17T14:31:23.506Z,25.20
2018-06-17T14:36:20.031Z,25.30
2018-06-17T14:38:48.442Z,25.10
2018-06-17T14:43:52.098Z,25.10
2018-06-17T14:46:25.951Z,25.00
2018-06-17T14:48:59.562Z,24.90
2018-06-17T14:51:33.364Z,25.10
2018-06-17T14:54:01.791Z,25.40
2018-06-17T14:56:30.206Z,25.70
2018-06-17T14:58:58.647Z,26.00
2018-06-17T15:01:27.060Z,25.80
2018-06-17T15:03:55.504Z,25.60
2018-06-17T15:06:23.933Z,25.70
2018-06-17T15:08:52.345Z,25.40
2018-06-17T15:13:48.898Z,25.60
2018-06-17T15:16:17.330Z,25.40
2018-06-17T15:18:45.747Z,25.30
2018-06-17T15:23:42.291Z,25.30
2018-06-17T15:26:10.699Z,25.30
2018-06-17T15:28:39.143Z,25.30
2018-06-17T15:31:12.850Z,25.20
2018-06-17T15:34:49.071Z,25.10
2018-06-17T15:37:22.706Z,25.20
2018-06-17T15:39:54.200Z,25.30
2018-06-17T15:44:50.715Z,25.40
2018-06-17T15:47:19.411Z,25.40
2018-06-17T15:49:47.947Z,25.50
2018-06-17T15:52:16.352Z,25.60
2018-06-17T15:54:44.750Z,25.60
2018-06-17T15:57:13.188Z,25.40
2018-06-17T15:59:41.598Z,25.20
2018-06-17T16:02:10.026Z,25.00
2018-06-17T16:04:38.427Z,24.70
2018-06-17T16:07:06.859Z,24.40
2018-06-17T16:09:35.299Z,24.30
2018-06-17T16:12:08.931Z,24.10
2018-06-17T16:14:42.599Z,24.00
2018-06-17T16:17:16.532Z,24.00
2018-06-17T16:19:50.258Z,24.00
2018-06-17T16:22:18.723Z,24.00
2018-06-17T16:24:47.126Z,24.00
2018-06-17T16:29:43.654Z,23.80
2018-06-17T16:32:12.055Z,23.80
2018-06-17T16:34:40.491Z,23.90
2018-06-17T16:37:08.926Z,24.00
2018-06-17T16:39:37.376Z,24.00
2018-06-17T16:42:05.786Z,24.10
2018-06-17T16:44:34.187Z,24.30
2018-06-17T16:47:02.623Z,24.20
2018-06-17T16:49:31.056Z,24.00
2018-06-17T16:52:04.898Z,24.10
2018-06-17T16:54:38.642Z,24.00
2018-06-17T16:57:12.335Z,23.90
2018-06-17T16:59:46.171Z,23.80
2018-06-17T17:02:14.581Z,23.90
2018-06-17T17:04:42.979Z,23.80
2018-06-17T17:07:11.407Z,23.80
2018-06-17T17:09:39.822Z,23.90
2018-06-17T17:12:08.248Z,23.90
2018-06-17T17:14:36.655Z,23.80
2018-06-17T17:17:05.083Z,23.70
2018-06-17T17:19:33.495Z,23.60
2018-06-17T17:22:01.924Z,23.60
2018-06-17T17:24:30.363Z,23.60
2018-06-17T17:26:58.763Z,23.50
2018-06-17T17:29:27.208Z,23.50
2018-06-17T17:32:00.914Z,23.40
2018-06-17T17:34:34.626Z,23.50
2018-06-17T17:37:08.427Z,23.40
2018-06-17T17:42:10.752Z,23.30
2018-06-17T17:44:44.466Z,23.30
2018-06-17T17:47:18.187Z,23.30
2018-06-17T17:49:46.653Z,23.20
2018-06-17T17:52:15.059Z,23.20
2018-06-17T17:54:43.540Z,23.20
2018-06-17T17:57:11.948Z,23.20
2018-06-17T18:02:08.467Z,23.20
2018-06-17T18:04:36.886Z,23.20
2018-06-17T18:07:05.319Z,23.10
2018-06-17T18:09:34.062Z,23.00
2018-06-17T18:12:02.505Z,22.90
2018-06-17T18:14:30.924Z,22.80
2018-06-17T18:16:59.355Z,22.70
2018-06-17T18:19:27.948Z,22.60
2018-06-17T18:21:56.638Z,22.60
2018-06-17T18:24:25.235Z,22.50
2018-06-17T18:26:59.059Z,22.40
2018-06-17T18:29:32.838Z,22.30
2018-06-17T18:32:06.615Z,22.40
2018-06-17T18:34:40.381Z,22.30
2018-06-17T18:37:08.804Z,22.30
2018-06-17T18:39:37.232Z,22.30
2018-06-17T18:42:05.702Z,22.20
2018-06-17T18:44:34.159Z,22.20
2018-06-17T18:47:02.566Z,22.10
2018-06-17T18:49:31.011Z,22.10
2018-06-17T18:52:00.304Z,22.00
2018-06-17T18:54:28.702Z,22.00
2018-06-17T18:56:57.307Z,21.90
2018-06-17T18:59:25.699Z,21.90
2018-06-17T19:04:22.231Z,21.80
2018-06-17T19:06:50.651Z,21.70
2018-06-17T19:10:25.943Z,21.70
2018-06-17T19:12:59.747Z,21.70
2018-06-17T19:15:33.318Z,21.60
2018-06-17T19:18:09.404Z,21.60
2018-06-17T19:20:38.212Z,21.50
2018-06-17T19:23:06.667Z,21.40
2018-06-17T19:25:35.099Z,21.40
2018-06-17T19:28:03.539Z,21.30
2018-06-17T19:30:31.994Z,21.30
2018-06-17T19:33:00.424Z,21.20
2018-06-17T19:35:28.859Z,21.20
2018-06-17T19:37:57.276Z,21.10
2018-06-17T19:40:25.683Z,21.00
2018-06-17T19:42:54.103Z,21.10
2018-06-17T19:45:22.550Z,21.00
2018-06-17T19:47:50.975Z,21.00
2018-06-17T19:50:24.870Z,21.00
2018-06-17T19:52:58.607Z,21.00
2018-06-17T19:55:32.331Z,21.00
2018-06-17T20:00:38.366Z,20.80
2018-06-17T20:03:06.751Z,20.80
2018-06-17T20:05:35.159Z,20.80
2018-06-17T20:08:03.598Z,20.70
2018-06-17T20:10:32.018Z,20.70
2018-06-17T20:15:28.567Z,20.70
2018-06-17T20:17:56.986Z,20.60
2018-06-17T20:20:25.431Z,20.60
2018-06-17T20:22:53.835Z,20.60
2018-06-17T20:25:22.251Z,20.60
2018-06-17T20:27:50.683Z,20.50
2018-06-17T20:30:19.095Z,20.60
2018-06-17T20:32:52.822Z,20.50
2018-06-17T20:35:26.542Z,20.40
2018-06-17T20:38:00.333Z,20.40
2018-06-17T20:40:34.151Z,20.40
2018-06-17T20:43:08.020Z,20.40
2018-06-17T20:45:36.471Z,20.40
2018-06-17T20:50:32.990Z,20.30
2018-06-17T20:53:01.425Z,20.20
2018-06-17T20:55:29.863Z,20.20
2018-06-17T20:57:58.349Z,20.10
2018-06-17T21:00:26.711Z,20.10
2018-06-17T21:02:55.135Z,20.10
2018-06-17T21:05:23.551Z,20.00
2018-06-17T21:07:52.132Z,20.00
2018-06-17T21:10:20.568Z,20.00
2018-06-17T21:12:48.971Z,20.00
2018-06-17T21:15:17.926Z,19.90
2018-06-17T21:17:47.614Z,19.90
2018-06-17T21:20:21.487Z,19.90
2018-06-17T21:22:55.239Z,19.90
2018-06-17T21:25:29.143Z,19.80
2018-06-17T21:27:59.051Z,19.80
2018-06-17T21:30:27.454Z,19.70
2018-06-17T21:32:55.884Z,19.70
2018-06-17T21:35:24.292Z,19.60
2018-06-17T21:37:52.720Z,19.60
2018-06-17T21:40:21.123Z,19.50
2018-06-17T21:42:49.546Z,19.50
2018-06-17T21:45:17.950Z,19.50
2018-06-17T21:47:46.402Z,19.50
2018-06-17T21:50:14.827Z,19.40
2018-06-17T21:52:43.270Z,19.40
2018-06-17T21:55:11.666Z,19.40
2018-06-17T21:57:40.075Z,19.30
2018-06-17T22:00:09.439Z,19.30
2018-06-17T22:02:44.958Z,19.20
2018-06-17T22:05:13.910Z,19.20
2018-06-17T22:07:47.587Z,19.10
2018-06-17T22:12:55.091Z,19.10
2018-06-17T22:17:57.075Z,19.00
2018-06-17T22:22:53.598Z,19.10
2018-06-17T22:25:22.084Z,19.00
2018-06-17T22:27:50.499Z,19.00
2018-06-17T22:30:18.919Z,19.10
2018-06-17T22:32:47.355Z,19.10
2018-06-17T22:35:15.763Z,19.10
2018-06-17T22:37:44.203Z,19.00
2018-06-17T22:40:12.619Z,19.10
2018-06-17T22:42:41.043Z,19.00
2018-06-17T22:45:09.455Z,19.00
2018-06-17T22:47:43.171Z,19.00
2018-06-17T22:50:11.575Z,19.00
2018-06-17T22:52:51.979Z,18.80
2018-06-17T22:55:20.434Z,18.80
2018-06-17T22:57:54.258Z,18.80
2018-06-17T23:00:27.978Z,18.80
2018-06-17T23:05:35.263Z,18.70
2018-06-17T23:08:09.127Z,18.70
2018-06-17T23:10:37.575Z,18.70
2018-06-17T23:15:34.099Z,18.60
2018-06-17T23:18:02.503Z,18.50
2018-06-17T23:22:59.026Z,18.50
2018-06-17T23:25:27.438Z,18.40
2018-06-17T23:30:23.950Z,18.30
2018-06-17T23:32:52.395Z,18.30
2018-06-17T23:35:20.811Z,18.20
2018-06-17T23:37:49.231Z,18.20
2018-06-17T23:40:17.639Z,18.20
2018-06-17T23:42:46.058Z,18.10
2018-06-17T23:45:14.467Z,18.10
2018-06-17T23:47:48.244Z,18.10
2018-06-17T23:50:21.915Z,18.10
2018-06-17T23:52:55.654Z,18.10
2018-06-17T23:55:29.323Z,18.00
2018-06-17T23:57:57.751Z,18.00
